sensor_id;sensor_type;location;lat;lon;timestamp;P1;durP1;ratioP1;P2;durP2;ratioP2
18320;SDS011;54904;54.350;18.664;2023-03-24T00:00:40;3.30;;;2.33;;
18320;SDS011;54904;54.350;18.664;2023-03-24T00:03:07;4.27;;;2.13;;
18320;SDS011;54904;54.350;18.664;2023-03-24T00:05:35;3.67;;;2.47;;
18320;SDS011;54904;54.350;18.664;2023-03-24T00:08:02;2.90;;;2.50;;
18320;SDS011;54904;54.350;18.664;2023-03-24T00:10:33;4.10;;;2.60;;
18320;SDS011;54904;54.350;18.664;2023-03-24T00:13:01;4.23;;;2.10;;
18320;SDS011;54904;54.350;18.664;2023-03-24T00:15:31;5.13;;;2.23;;
18320;SDS011;54904;54.350;18.664;2023-03-24T00:17:59;2.03;;;1.73;;
18320;SDS011;54904;54.350;18.664;2023-03-24T00:20:26;2.40;;;1.90;;
18320;SDS011;54904;54.350;18.664;2023-03-24T00:22:55;2.10;;;1.97;;
18320;SDS011;54904;54.350;18.664;2023-03-24T00:25:23;2.40;;;1.93;;
18320;SDS011;54904;54.350;18.664;2023-03-24T00:27:56;3.93;;;1.90;;
18320;SDS011;54904;54.350;18.664;2023-03-24T00:30:25;2.50;;;2.10;;
18320;SDS011;54904;54.350;18.664;2023-03-24T00:32:57;2.20;;;1.70;;
18320;SDS011;54904;54.350;18.664;2023-03-24T00:35:26;3.50;;;2.07;;
18320;SDS011;54904;54.350;18.664;2023-03-24T00:37:54;4.00;;;1.90;;
18320;SDS011;54904;54.350;18.664;2023-03-24T00:40:21;3.30;;;2.50;;
18320;SDS011;54904;54.350;18.664;2023-03-24T00:42:49;3.20;;;2.43;;
18320;SDS011;54904;54.350;18.664;2023-03-24T00:45:18;3.80;;;2.03;;
18320;SDS011;54904;54.350;18.664;2023-03-24T00:47:50;2.90;;;2.20;;
18320;SDS011;54904;54.350;18.664;2023-03-24T00:50:24;2.10;;;1.80;;
18320;SDS011;54904;54.350;18.664;2023-03-24T00:52:51;6.93;;;3.07;;
18320;SDS011;54904;54.350;18.664;2023-03-24T00:55:20;5.33;;;2.90;;
18320;SDS011;54904;54.350;18.664;2023-03-24T00:57:47;5.63;;;3.17;;
18320;SDS011;54904;54.350;18.664;2023-03-24T01:00:16;3.57;;;2.70;;
18320;SDS011;54904;54.350;18.664;2023-03-24T01:02:45;3.23;;;2.43;;
18320;SDS011;54904;54.350;18.664;2023-03-24T01:05:17;3.33;;;2.23;;
18320;SDS011;54904;54.350;18.664;2023-03-24T01:07:47;2.80;;;2.33;;
18320;SDS011;54904;54.350;18.664;2023-03-24T01:10:17;2.57;;;2.37;;
18320;SDS011;54904;54.350;18.664;2023-03-24T01:12:50;3.93;;;2.90;;
18320;SDS011;54904;54.350;18.664;2023-03-24T01:15:19;3.73;;;2.53;;
18320;SDS011;54904;54.350;18.664;2023-03-24T01:17:51;2.73;;;2.43;;
18320;SDS011;54904;54.350;18.664;2023-03-24T01:20:19;4.00;;;2.87;;
18320;SDS011;54904;54.350;18.664;2023-03-24T01:22:49;2.60;;;2.30;;
18320;SDS011;54904;54.350;18.664;2023-03-24T01:25:19;2.70;;;2.40;;
18320;SDS011;54904;54.350;18.664;2023-03-24T01:27:48;2.23;;;2.00;;
18320;SDS011;54904;54.350;18.664;2023-03-24T01:30:17;2.43;;;1.83;;
18320;SDS011;54904;54.350;18.664;2023-03-24T01:32:51;1.90;;;1.80;;
18320;SDS011;54904;54.350;18.664;2023-03-24T01:35:19;2.13;;;1.90;;
18320;SDS011;54904;54.350;18.664;2023-03-24T01:37:49;2.17;;;1.90;;
18320;SDS011;54904;54.350;18.664;2023-03-24T01:40:18;4.03;;;2.30;;
18320;SDS011;54904;54.350;18.664;2023-03-24T01:42:46;1.83;;;1.70;;
18320;SDS011;54904;54.350;18.664;2023-03-24T01:48:26;4.00;;;1.77;;
18320;SDS011;54904;54.350;18.664;2023-03-24T01:50:57;2.20;;;2.00;;
18320;SDS011;54904;54.350;18.664;2023-03-24T01:53:28;2.70;;;2.10;;
18320;SDS011;54904;54.350;18.664;2023-03-24T01:55:57;1.80;;;1.70;;
18320;SDS011;54904;54.350;18.664;2023-03-24T01:58:30;2.30;;;2.10;;
18320;SDS011;54904;54.350;18.664;2023-03-24T02:01:09;2.10;;;2.00;;
18320;SDS011;54904;54.350;18.664;2023-03-24T02:04:12;2.30;;;2.10;;
18320;SDS011;54904;54.350;18.664;2023-03-24T02:06:41;3.17;;;2.40;;
18320;SDS011;54904;54.350;18.664;2023-03-24T02:09:12;2.37;;;2.17;;
18320;SDS011;54904;54.350;18.664;2023-03-24T02:11:40;2.00;;;1.80;;
18320;SDS011;54904;54.350;18.664;2023-03-24T02:14:09;3.43;;;2.50;;
18320;SDS011;54904;54.350;18.664;2023-03-24T02:16:46;2.10;;;2.00;;
18320;SDS011;54904;54.350;18.664;2023-03-24T02:19:30;2.73;;;2.03;;
18320;SDS011;54904;54.350;18.664;2023-03-24T02:22:22;2.63;;;2.10;;
18320;SDS011;54904;54.350;18.664;2023-03-24T02:28:13;4.90;;;2.50;;
18320;SDS011;54904;54.350;18.664;2023-03-24T02:34:07;2.80;;;2.60;;
18320;SDS011;54904;54.350;18.664;2023-03-24T02:40:03;4.50;;;3.07;;
18320;SDS011;54904;54.350;18.664;2023-03-24T02:42:41;6.50;;;3.60;;
18320;SDS011;54904;54.350;18.664;2023-03-24T02:45:17;4.07;;;3.40;;
18320;SDS011;54904;54.350;18.664;2023-03-24T02:47:55;9.47;;;4.90;;
18320;SDS011;54904;54.350;18.664;2023-03-24T02:50:38;7.47;;;4.80;;
18320;SDS011;54904;54.350;18.664;2023-03-24T02:53:10;7.50;;;4.47;;
18320;SDS011;54904;54.350;18.664;2023-03-24T02:56:06;6.77;;;4.17;;
18320;SDS011;54904;54.350;18.664;2023-03-24T02:58:37;7.20;;;3.50;;
18320;SDS011;54904;54.350;18.664;2023-03-24T03:01:10;3.07;;;2.77;;
18320;SDS011;54904;54.350;18.664;2023-03-24T03:04:06;3.70;;;2.70;;
18320;SDS011;54904;54.350;18.664;2023-03-24T03:06:38;2.77;;;2.53;;
18320;SDS011;54904;54.350;18.664;2023-03-24T03:09:09;3.23;;;2.83;;
18320;SDS011;54904;54.350;18.664;2023-03-24T03:11:41;4.30;;;2.90;;
18320;SDS011;54904;54.350;18.664;2023-03-24T03:14:12;2.33;;;2.20;;
18320;SDS011;54904;54.350;18.664;2023-03-24T03:16:45;2.33;;;2.23;;
18320;SDS011;54904;54.350;18.664;2023-03-24T03:19:19;2.80;;;2.60;;
18320;SDS011;54904;54.350;18.664;2023-03-24T03:21:48;2.43;;;2.23;;
18320;SDS011;54904;54.350;18.664;2023-03-24T03:24:16;2.40;;;2.20;;
18320;SDS011;54904;54.350;18.664;2023-03-24T03:26:53;2.40;;;2.20;;
18320;SDS011;54904;54.350;18.664;2023-03-24T03:29:26;2.50;;;2.30;;
18320;SDS011;54904;54.350;18.664;2023-03-24T03:31:58;2.10;;;2.00;;
18320;SDS011;54904;54.350;18.664;2023-03-24T03:34:34;2.80;;;2.30;;
18320;SDS011;54904;54.350;18.664;2023-03-24T03:37:08;2.40;;;2.20;;
18320;SDS011;54904;54.350;18.664;2023-03-24T03:39:42;2.27;;;2.10;;
18320;SDS011;54904;54.350;18.664;2023-03-24T03:42:15;2.33;;;2.13;;
18320;SDS011;54904;54.350;18.664;2023-03-24T03:44:42;3.23;;;2.40;;
18320;SDS011;54904;54.350;18.664;2023-03-24T03:47:10;2.80;;;2.60;;
18320;SDS011;54904;54.350;18.664;2023-03-24T03:49:40;4.57;;;3.40;;
18320;SDS011;54904;54.350;18.664;2023-03-24T03:52:09;3.43;;;3.13;;
18320;SDS011;54904;54.350;18.664;2023-03-24T03:54:36;2.80;;;2.60;;
18320;SDS011;54904;54.350;18.664;2023-03-24T03:57:05;3.03;;;2.70;;
18320;SDS011;54904;54.350;18.664;2023-03-24T03:59:53;2.80;;;2.60;;
18320;SDS011;54904;54.350;18.664;2023-03-24T04:02:25;3.00;;;2.80;;
18320;SDS011;54904;54.350;18.664;2023-03-24T04:05:07;5.50;;;3.60;;
18320;SDS011;54904;54.350;18.664;2023-03-24T04:07:57;4.30;;;3.80;;
18320;SDS011;54904;54.350;18.664;2023-03-24T04:11:04;5.27;;;3.70;;
18320;SDS011;54904;54.350;18.664;2023-03-24T04:14:10;6.33;;;4.03;;
18320;SDS011;54904;54.350;18.664;2023-03-24T04:17:25;6.87;;;4.47;;
18320;SDS011;54904;54.350;18.664;2023-03-24T04:20:07;4.67;;;3.93;;
18320;SDS011;54904;54.350;18.664;2023-03-24T04:22:44;4.77;;;4.10;;
18320;SDS011;54904;54.350;18.664;2023-03-24T04:25:25;4.13;;;3.80;;
18320;SDS011;54904;54.350;18.664;2023-03-24T04:28:00;5.33;;;3.40;;
18320;SDS011;54904;54.350;18.664;2023-03-24T04:30:35;3.40;;;3.10;;
18320;SDS011;54904;54.350;18.664;2023-03-24T04:33:13;3.50;;;3.20;;
18320;SDS011;54904;54.350;18.664;2023-03-24T04:35:50;3.03;;;2.83;;
18320;SDS011;54904;54.350;18.664;2023-03-24T04:38:39;2.90;;;2.70;;
18320;SDS011;54904;54.350;18.664;2023-03-24T04:41:13;4.63;;;2.90;;
18320;SDS011;54904;54.350;18.664;2023-03-24T04:43:46;4.60;;;3.60;;
18320;SDS011;54904;54.350;18.664;2023-03-24T04:46:14;3.30;;;3.00;;
18320;SDS011;54904;54.350;18.664;2023-03-24T04:49:02;3.63;;;3.17;;
18320;SDS011;54904;54.350;18.664;2023-03-24T04:51:35;3.50;;;3.20;;
18320;SDS011;54904;54.350;18.664;2023-03-24T04:54:06;3.00;;;2.77;;
18320;SDS011;54904;54.350;18.664;2023-03-24T04:56:39;4.93;;;4.00;;
18320;SDS011;54904;54.350;18.664;2023-03-24T04:59:30;5.20;;;4.37;;
18320;SDS011;54904;54.350;18.664;2023-03-24T05:02:00;5.37;;;3.70;;
18320;SDS011;54904;54.350;18.664;2023-03-24T05:04:29;3.90;;;3.50;;
18320;SDS011;54904;54.350;18.664;2023-03-24T05:07:07;3.73;;;3.33;;
18320;SDS011;54904;54.350;18.664;2023-03-24T05:09:34;4.23;;;3.67;;
18320;SDS011;54904;54.350;18.664;2023-03-24T05:12:01;5.13;;;4.60;;
18320;SDS011;54904;54.350;18.664;2023-03-24T05:14:39;6.63;;;4.70;;
18320;SDS011;54904;54.350;18.664;2023-03-24T05:17:06;6.60;;;5.23;;
18320;SDS011;54904;54.350;18.664;2023-03-24T05:19:35;10.30;;;5.57;;
18320;SDS011;54904;54.350;18.664;2023-03-24T05:22:02;6.70;;;5.30;;
18320;SDS011;54904;54.350;18.664;2023-03-24T05:24:29;7.73;;;5.60;;
18320;SDS011;54904;54.350;18.664;2023-03-24T05:26:59;11.17;;;7.00;;
18320;SDS011;54904;54.350;18.664;2023-03-24T05:29:26;10.40;;;6.57;;
18320;SDS011;54904;54.350;18.664;2023-03-24T05:31:54;7.20;;;5.47;;
18320;SDS011;54904;54.350;18.664;2023-03-24T05:34:21;7.33;;;5.10;;
18320;SDS011;54904;54.350;18.664;2023-03-24T05:37:03;9.70;;;5.60;;
18320;SDS011;54904;54.350;18.664;2023-03-24T05:39:30;7.50;;;5.50;;
18320;SDS011;54904;54.350;18.664;2023-03-24T05:42:06;7.93;;;5.30;;
18320;SDS011;54904;54.350;18.664;2023-03-24T05:44:33;10.70;;;5.40;;
18320;SDS011;54904;54.350;18.664;2023-03-24T05:47:03;5.27;;;4.63;;
18320;SDS011;54904;54.350;18.664;2023-03-24T05:49:31;6.80;;;4.70;;
18320;SDS011;54904;54.350;18.664;2023-03-24T05:51:59;6.73;;;5.23;;
18320;SDS011;54904;54.350;18.664;2023-03-24T05:54:29;5.63;;;4.93;;
18320;SDS011;54904;54.350;18.664;2023-03-24T05:57:07;6.43;;;4.40;;
18320;SDS011;54904;54.350;18.664;2023-03-24T05:59:52;6.20;;;4.17;;
18320;SDS011;54904;54.350;18.664;2023-03-24T06:02:39;5.70;;;4.67;;
18320;SDS011;54904;54.350;18.664;2023-03-24T06:05:20;6.80;;;4.30;;
18320;SDS011;54904;54.350;18.664;2023-03-24T06:07:48;4.40;;;4.00;;
18320;SDS011;54904;54.350;18.664;2023-03-24T06:10:16;5.87;;;4.47;;
18320;SDS011;54904;54.350;18.664;2023-03-24T06:12:49;5.27;;;4.10;;
18320;SDS011;54904;54.350;18.664;2023-03-24T06:15:18;5.30;;;4.50;;
18320;SDS011;54904;54.350;18.664;2023-03-24T06:17:47;6.30;;;4.37;;
18320;SDS011;54904;54.350;18.664;2023-03-24T06:20:25;3.90;;;3.47;;
18320;SDS011;54904;54.350;18.664;2023-03-24T06:23:06;4.37;;;3.97;;
18320;SDS011;54904;54.350;18.664;2023-03-24T06:25:56;3.97;;;3.27;;
18320;SDS011;54904;54.350;18.664;2023-03-24T06:28:27;4.43;;;4.00;;
18320;SDS011;54904;54.350;18.664;2023-03-24T06:31:03;5.77;;;3.83;;
18320;SDS011;54904;54.350;18.664;2023-03-24T06:33:34;6.63;;;4.10;;
18320;SDS011;54904;54.350;18.664;2023-03-24T06:36:03;7.40;;;5.00;;
18320;SDS011;54904;54.350;18.664;2023-03-24T06:38:31;7.97;;;5.10;;
18320;SDS011;54904;54.350;18.664;2023-03-24T06:41:01;9.87;;;5.40;;
18320;SDS011;54904;54.350;18.664;2023-03-24T06:43:30;8.50;;;5.40;;
18320;SDS011;54904;54.350;18.664;2023-03-24T06:45:57;8.03;;;4.93;;
18320;SDS011;54904;54.350;18.664;2023-03-24T06:48:26;11.07;;;5.07;;
18320;SDS011;54904;54.350;18.664;2023-03-24T06:51:00;10.73;;;5.33;;
18320;SDS011;54904;54.350;18.664;2023-03-24T06:53:27;8.53;;;5.20;;
18320;SDS011;54904;54.350;18.664;2023-03-24T06:55:55;8.67;;;5.17;;
18320;SDS011;54904;54.350;18.664;2023-03-24T06:58:26;8.27;;;4.50;;
18320;SDS011;54904;54.350;18.664;2023-03-24T07:00:59;6.90;;;4.67;;
18320;SDS011;54904;54.350;18.664;2023-03-24T07:04:02;7.77;;;4.70;;
18320;SDS011;54904;54.350;18.664;2023-03-24T07:06:46;10.03;;;5.30;;
18320;SDS011;54904;54.350;18.664;2023-03-24T07:09:16;8.07;;;4.83;;
18320;SDS011;54904;54.350;18.664;2023-03-24T07:11:44;5.53;;;4.33;;
18320;SDS011;54904;54.350;18.664;2023-03-24T07:14:13;5.53;;;3.90;;
18320;SDS011;54904;54.350;18.664;2023-03-24T07:16:41;3.90;;;3.33;;
18320;SDS011;54904;54.350;18.664;2023-03-24T07:19:26;3.87;;;3.53;;
18320;SDS011;54904;54.350;18.664;2023-03-24T07:22:13;7.97;;;4.57;;
18320;SDS011;54904;54.350;18.664;2023-03-24T07:25:09;8.60;;;5.00;;
18320;SDS011;54904;54.350;18.664;2023-03-24T07:27:52;8.37;;;4.63;;
18320;SDS011;54904;54.350;18.664;2023-03-24T07:30:21;5.80;;;4.50;;
18320;SDS011;54904;54.350;18.664;2023-03-24T07:32:49;6.07;;;4.90;;
18320;SDS011;54904;54.350;18.664;2023-03-24T07:35:21;6.97;;;4.77;;
18320;SDS011;54904;54.350;18.664;2023-03-24T07:37:48;8.27;;;5.50;;
18320;SDS011;54904;54.350;18.664;2023-03-24T07:40:16;7.43;;;5.47;;
18320;SDS011;54904;54.350;18.664;2023-03-24T07:42:44;6.27;;;5.07;;
18320;SDS011;54904;54.350;18.664;2023-03-24T07:45:32;8.67;;;5.00;;
18320;SDS011;54904;54.350;18.664;2023-03-24T07:48:02;7.00;;;5.27;;
18320;SDS011;54904;54.350;18.664;2023-03-24T07:50:44;6.67;;;4.73;;
18320;SDS011;54904;54.350;18.664;2023-03-24T07:53:31;9.87;;;5.33;;
18320;SDS011;54904;54.350;18.664;2023-03-24T07:55:59;5.47;;;4.43;;
18320;SDS011;54904;54.350;18.664;2023-03-24T07:58:26;10.10;;;5.30;;
18320;SDS011;54904;54.350;18.664;2023-03-24T08:01:06;6.40;;;5.13;;
18320;SDS011;54904;54.350;18.664;2023-03-24T08:03:40;6.30;;;4.67;;
18320;SDS011;54904;54.350;18.664;2023-03-24T08:06:13;7.40;;;5.00;;
18320;SDS011;54904;54.350;18.664;2023-03-24T08:08:49;7.40;;;5.20;;
18320;SDS011;54904;54.350;18.664;2023-03-24T08:11:16;10.97;;;6.20;;
18320;SDS011;54904;54.350;18.664;2023-03-24T08:13:43;10.03;;;5.70;;
18320;SDS011;54904;54.350;18.664;2023-03-24T08:16:12;10.60;;;5.53;;
18320;SDS011;54904;54.350;18.664;2023-03-24T08:18:39;7.53;;;4.50;;
18320;SDS011;54904;54.350;18.664;2023-03-24T08:21:12;5.83;;;5.17;;
18320;SDS011;54904;54.350;18.664;2023-03-24T08:23:39;8.87;;;6.20;;
18320;SDS011;54904;54.350;18.664;2023-03-24T08:26:07;9.47;;;6.27;;
18320;SDS011;54904;54.350;18.664;2023-03-24T08:28:34;5.87;;;4.90;;
18320;SDS011;54904;54.350;18.664;2023-03-24T08:31:02;9.07;;;5.53;;
18320;SDS011;54904;54.350;18.664;2023-03-24T08:33:31;7.10;;;5.73;;
18320;SDS011;54904;54.350;18.664;2023-03-24T08:35:59;7.87;;;6.07;;
18320;SDS011;54904;54.350;18.664;2023-03-24T08:38:26;6.80;;;4.47;;
18320;SDS011;54904;54.350;18.664;2023-03-24T08:40:56;5.77;;;4.80;;
18320;SDS011;54904;54.350;18.664;2023-03-24T08:43:26;7.20;;;5.00;;
18320;SDS011;54904;54.350;18.664;2023-03-24T08:45:55;5.50;;;4.87;;
18320;SDS011;54904;54.350;18.664;2023-03-24T08:48:22;7.63;;;4.53;;
18320;SDS011;54904;54.350;18.664;2023-03-24T08:50:54;8.83;;;5.70;;
18320;SDS011;54904;54.350;18.664;2023-03-24T08:53:21;5.63;;;5.03;;
18320;SDS011;54904;54.350;18.664;2023-03-24T08:55:49;7.40;;;5.10;;
18320;SDS011;54904;54.350;18.664;2023-03-24T08:58:17;6.80;;;5.10;;
18320;SDS011;54904;54.350;18.664;2023-03-24T09:00:46;13.00;;;8.00;;
18320;SDS011;54904;54.350;18.664;2023-03-24T09:03:19;9.60;;;7.13;;
18320;SDS011;54904;54.350;18.664;2023-03-24T09:05:47;9.20;;;6.20;;
18320;SDS011;54904;54.350;18.664;2023-03-24T09:08:17;10.10;;;6.50;;
18320;SDS011;54904;54.350;18.664;2023-03-24T09:10:45;8.40;;;6.20;;
18320;SDS011;54904;54.350;18.664;2023-03-24T09:13:12;5.10;;;4.60;;
18320;SDS011;54904;54.350;18.664;2023-03-24T09:15:44;6.53;;;4.77;;
18320;SDS011;54904;54.350;18.664;2023-03-24T09:18:13;6.77;;;5.07;;
18320;SDS011;54904;54.350;18.664;2023-03-24T09:20:44;6.90;;;5.20;;
18320;SDS011;54904;54.350;18.664;2023-03-24T09:23:12;7.17;;;5.30;;
18320;SDS011;54904;54.350;18.664;2023-03-24T09:25:41;8.53;;;5.70;;
18320;SDS011;54904;54.350;18.664;2023-03-24T09:28:08;4.97;;;4.37;;
18320;SDS011;54904;54.350;18.664;2023-03-24T09:30:35;7.07;;;4.77;;
18320;SDS011;54904;54.350;18.664;2023-03-24T09:33:06;5.53;;;4.30;;
18320;SDS011;54904;54.350;18.664;2023-03-24T09:35:41;5.70;;;4.10;;
18320;SDS011;54904;54.350;18.664;2023-03-24T09:38:09;6.00;;;4.40;;
18320;SDS011;54904;54.350;18.664;2023-03-24T09:40:37;6.13;;;4.30;;
18320;SDS011;54904;54.350;18.664;2023-03-24T09:43:07;5.83;;;4.03;;
18320;SDS011;54904;54.350;18.664;2023-03-24T09:45:43;6.07;;;4.30;;
18320;SDS011;54904;54.350;18.664;2023-03-24T09:48:16;7.10;;;5.47;;
18320;SDS011;54904;54.350;18.664;2023-03-24T09:50:50;8.70;;;5.37;;
18320;SDS011;54904;54.350;18.664;2023-03-24T09:53:23;5.30;;;4.27;;
18320;SDS011;54904;54.350;18.664;2023-03-24T09:55:56;6.70;;;5.40;;
18320;SDS011;54904;54.350;18.664;2023-03-24T09:58:30;6.80;;;4.83;;
18320;SDS011;54904;54.350;18.664;2023-03-24T10:00:58;7.77;;;5.80;;
18320;SDS011;54904;54.350;18.664;2023-03-24T10:03:26;14.23;;;6.70;;
18320;SDS011;54904;54.350;18.664;2023-03-24T10:05:54;6.77;;;5.03;;
18320;SDS011;54904;54.350;18.664;2023-03-24T10:08:26;6.63;;;4.90;;
18320;SDS011;54904;54.350;18.664;2023-03-24T10:11:00;9.50;;;5.30;;
18320;SDS011;54904;54.350;18.664;2023-03-24T10:13:36;6.27;;;4.73;;
18320;SDS011;54904;54.350;18.664;2023-03-24T10:16:14;4.47;;;4.07;;
18320;SDS011;54904;54.350;18.664;2023-03-24T10:18:49;4.37;;;3.70;;
18320;SDS011;54904;54.350;18.664;2023-03-24T10:21:24;8.93;;;3.87;;
18320;SDS011;54904;54.350;18.664;2023-03-24T10:23:53;6.77;;;4.17;;
18320;SDS011;54904;54.350;18.664;2023-03-24T10:26:30;4.67;;;4.10;;
18320;SDS011;54904;54.350;18.664;2023-03-24T10:29:10;5.00;;;4.17;;
18320;SDS011;54904;54.350;18.664;2023-03-24T10:31:50;7.03;;;4.43;;
18320;SDS011;54904;54.350;18.664;2023-03-24T10:34:20;5.67;;;4.00;;
18320;SDS011;54904;54.350;18.664;2023-03-24T10:36:54;5.13;;;4.13;;
18320;SDS011;54904;54.350;18.664;2023-03-24T10:39:23;5.07;;;3.77;;
18320;SDS011;54904;54.350;18.664;2023-03-24T10:41:50;6.33;;;3.50;;
18320;SDS011;54904;54.350;18.664;2023-03-24T10:44:21;6.13;;;3.77;;
18320;SDS011;54904;54.350;18.664;2023-03-24T10:46:52;4.07;;;3.77;;
18320;SDS011;54904;54.350;18.664;2023-03-24T10:49:22;3.57;;;3.27;;
18320;SDS011;54904;54.350;18.664;2023-03-24T10:51:50;5.70;;;3.83;;
18320;SDS011;54904;54.350;18.664;2023-03-24T10:54:21;3.85;;;3.50;;
18320;SDS011;54904;54.350;18.664;2023-03-24T10:56:50;6.07;;;3.25;;
18320;SDS011;54904;54.350;18.664;2023-03-24T10:59:30;4.60;;;3.40;;
18320;SDS011;54904;54.350;18.664;2023-03-24T11:02:01;4.30;;;3.67;;
18320;SDS011;54904;54.350;18.664;2023-03-24T11:04:42;4.65;;;2.90;;
18320;SDS011;54904;54.350;18.664;2023-03-24T11:07:15;3.10;;;2.88;;
18320;SDS011;54904;54.350;18.664;2023-03-24T11:09:45;3.33;;;3.03;;
18320;SDS011;54904;54.350;18.664;2023-03-24T11:12:19;3.13;;;2.85;;
18320;SDS011;54904;54.350;18.664;2023-03-24T11:14:50;3.17;;;2.85;;
18320;SDS011;54904;54.350;18.664;2023-03-24T11:17:24;3.08;;;2.70;;
18320;SDS011;54904;54.350;18.664;2023-03-24T11:19:53;3.80;;;2.88;;
18320;SDS011;54904;54.350;18.664;2023-03-24T11:22:22;4.40;;;3.10;;
18320;SDS011;54904;54.350;18.664;2023-03-24T11:24:51;2.80;;;2.50;;
18320;SDS011;54904;54.350;18.664;2023-03-24T11:27:21;2.38;;;2.17;;
18320;SDS011;54904;54.350;18.664;2023-03-24T11:29:51;2.72;;;2.53;;
18320;SDS011;54904;54.350;18.664;2023-03-24T11:32:21;2.55;;;2.35;;
18320;SDS011;54904;54.350;18.664;2023-03-24T11:34:57;5.88;;;2.53;;
18320;SDS011;54904;54.350;18.664;2023-03-24T11:37:32;2.55;;;2.33;;
18320;SDS011;54904;54.350;18.664;2023-03-24T11:40:13;4.18;;;3.05;;
18320;SDS011;54904;54.350;18.664;2023-03-24T11:42:44;3.20;;;3.00;;
18320;SDS011;54904;54.350;18.664;2023-03-24T11:45:22;3.78;;;2.70;;
18320;SDS011;54904;54.350;18.664;2023-03-24T11:47:55;3.25;;;2.95;;
18320;SDS011;54904;54.350;18.664;2023-03-24T11:50:27;2.53;;;2.33;;
18320;SDS011;54904;54.350;18.664;2023-03-24T11:52:58;4.72;;;2.67;;
18320;SDS011;54904;54.350;18.664;2023-03-24T11:55:33;2.60;;;2.40;;
18320;SDS011;54904;54.350;18.664;2023-03-24T11:58:07;2.55;;;2.35;;
18320;SDS011;54904;54.350;18.664;2023-03-24T12:00:42;2.37;;;2.17;;
18320;SDS011;54904;54.350;18.664;2023-03-24T12:03:19;3.00;;;2.70;;
18320;SDS011;54904;54.350;18.664;2023-03-24T12:06:31;2.77;;;2.50;;
18320;SDS011;54904;54.350;18.664;2023-03-24T12:09:18;4.28;;;2.88;;
18320;SDS011;54904;54.350;18.664;2023-03-24T12:11:57;5.72;;;2.70;;
18320;SDS011;54904;54.350;18.664;2023-03-24T12:14:39;2.60;;;2.40;;
18320;SDS011;54904;54.350;18.664;2023-03-24T12:17:16;4.40;;;2.67;;
18320;SDS011;54904;54.350;18.664;2023-03-24T12:19:56;3.35;;;3.00;;
18320;SDS011;54904;54.350;18.664;2023-03-24T12:22:45;3.50;;;2.80;;
18320;SDS011;54904;54.350;18.664;2023-03-24T12:25:28;4.60;;;3.08;;
18320;SDS011;54904;54.350;18.664;2023-03-24T12:28:18;2.80;;;2.60;;
18320;SDS011;54904;54.350;18.664;2023-03-24T12:31:01;3.57;;;2.80;;
18320;SDS011;54904;54.350;18.664;2023-03-24T12:33:56;3.80;;;3.07;;
18320;SDS011;54904;54.350;18.664;2023-03-24T12:36:33;2.50;;;2.30;;
18320;SDS011;54904;54.350;18.664;2023-03-24T12:39:08;3.27;;;2.93;;
18320;SDS011;54904;54.350;18.664;2023-03-24T12:41:43;7.05;;;2.78;;
18320;SDS011;54904;54.350;18.664;2023-03-24T12:44:29;2.67;;;2.40;;
18320;SDS011;54904;54.350;18.664;2023-03-24T12:47:16;3.22;;;2.70;;
18320;SDS011;54904;54.350;18.664;2023-03-24T12:50:10;3.00;;;2.70;;
18320;SDS011;54904;54.350;18.664;2023-03-24T12:52:55;2.60;;;2.40;;
18320;SDS011;54904;54.350;18.664;2023-03-24T12:55:35;2.13;;;2.00;;
18320;SDS011;54904;54.350;18.664;2023-03-24T12:58:10;2.50;;;2.30;;
18320;SDS011;54904;54.350;18.664;2023-03-24T13:00:43;3.00;;;2.70;;
18320;SDS011;54904;54.350;18.664;2023-03-24T13:03:25;2.33;;;2.13;;
18320;SDS011;54904;54.350;18.664;2023-03-24T13:05:58;2.50;;;2.00;;
18320;SDS011;54904;54.350;18.664;2023-03-24T13:08:36;2.80;;;2.60;;
18320;SDS011;54904;54.350;18.664;2023-03-24T13:11:09;2.70;;;2.40;;
18320;SDS011;54904;54.350;18.664;2023-03-24T13:13:40;2.58;;;2.33;;
18320;SDS011;54904;54.350;18.664;2023-03-24T13:16:10;2.43;;;2.27;;
18320;SDS011;54904;54.350;18.664;2023-03-24T13:18:42;2.53;;;2.33;;
18320;SDS011;54904;54.350;18.664;2023-03-24T13:21:13;2.40;;;2.20;;
18320;SDS011;54904;54.350;18.664;2023-03-24T13:23:46;2.80;;;2.47;;
18320;SDS011;54904;54.350;18.664;2023-03-24T13:26:22;4.10;;;2.27;;
18320;SDS011;54904;54.350;18.664;2023-03-24T13:28:56;2.40;;;2.20;;
18320;SDS011;54904;54.350;18.664;2023-03-24T13:31:37;2.00;;;1.90;;
18320;SDS011;54904;54.350;18.664;2023-03-24T13:34:14;2.33;;;2.13;;
18320;SDS011;54904;54.350;18.664;2023-03-24T13:36:55;2.33;;;2.15;;
18320;SDS011;54904;54.350;18.664;2023-03-24T13:39:27;2.20;;;2.07;;
18320;SDS011;54904;54.350;18.664;2023-03-24T13:41:57;2.07;;;1.97;;
18320;SDS011;54904;54.350;18.664;2023-03-24T13:44:29;2.03;;;1.93;;
18320;SDS011;54904;54.350;18.664;2023-03-24T13:47:05;2.63;;;2.17;;
18320;SDS011;54904;54.350;18.664;2023-03-24T13:49:36;3.77;;;2.43;;
18320;SDS011;54904;54.350;18.664;2023-03-24T13:52:19;2.50;;;2.30;;
18320;SDS011;54904;54.350;18.664;2023-03-24T13:54:50;2.50;;;2.30;;
18320;SDS011;54904;54.350;18.664;2023-03-24T13:57:22;2.00;;;1.80;;
18320;SDS011;54904;54.350;18.664;2023-03-24T14:00:02;2.28;;;2.08;;
18320;SDS011;54904;54.350;18.664;2023-03-24T14:02:45;3.13;;;2.50;;
18320;SDS011;54904;54.350;18.664;2023-03-24T14:08:34;10.73;;;2.50;;
18320;SDS011;54904;54.350;18.664;2023-03-24T14:11:09;2.20;;;2.00;;
18320;SDS011;54904;54.350;18.664;2023-03-24T14:14:15;3.43;;;1.80;;
18320;SDS011;54904;54.350;18.664;2023-03-24T14:16:43;1.80;;;1.70;;
18320;SDS011;54904;54.350;18.664;2023-03-24T14:19:23;1.93;;;1.83;;
18320;SDS011;54904;54.350;18.664;2023-03-24T14:22:07;2.43;;;1.90;;
18320;SDS011;54904;54.350;18.664;2023-03-24T14:24:39;1.80;;;1.70;;
18320;SDS011;54904;54.350;18.664;2023-03-24T14:27:20;1.60;;;1.50;;
18320;SDS011;54904;54.350;18.664;2023-03-24T14:29:59;2.53;;;1.93;;
18320;SDS011;54904;54.350;18.664;2023-03-24T14:32:32;2.30;;;1.73;;
18320;SDS011;54904;54.350;18.664;2023-03-24T14:35:04;3.40;;;2.70;;
18320;SDS011;54904;54.350;18.664;2023-03-24T14:37:48;2.10;;;2.00;;
18320;SDS011;54904;54.350;18.664;2023-03-24T14:40:25;1.80;;;1.70;;
18320;SDS011;54904;54.350;18.664;2023-03-24T14:43:03;2.00;;;1.70;;
18320;SDS011;54904;54.350;18.664;2023-03-24T14:45:50;2.07;;;1.90;;
18320;SDS011;54904;54.350;18.664;2023-03-24T14:51:17;2.43;;;1.77;;
18320;SDS011;54904;54.350;18.664;2023-03-24T14:54:00;1.60;;;1.50;;
18320;SDS011;54904;54.350;18.664;2023-03-24T14:56:32;1.43;;;1.33;;
18320;SDS011;54904;54.350;18.664;2023-03-24T14:59:02;1.77;;;1.57;;
18320;SDS011;54904;54.350;18.664;2023-03-24T15:01:34;1.83;;;1.40;;
18320;SDS011;54904;54.350;18.664;2023-03-24T15:04:02;4.13;;;1.50;;
18320;SDS011;54904;54.350;18.664;2023-03-24T15:06:32;1.80;;;1.63;;
18320;SDS011;54904;54.350;18.664;2023-03-24T15:09:08;2.10;;;2.00;;
18320;SDS011;54904;54.350;18.664;2023-03-24T15:11:38;1.70;;;1.60;;
18320;SDS011;54904;54.350;18.664;2023-03-24T15:14:10;1.80;;;1.67;;
18320;SDS011;54904;54.350;18.664;2023-03-24T15:16:56;1.90;;;1.80;;
18320;SDS011;54904;54.350;18.664;2023-03-24T15:19:26;3.97;;;1.77;;
18320;SDS011;54904;54.350;18.664;2023-03-24T15:21:57;1.93;;;1.57;;
18320;SDS011;54904;54.350;18.664;2023-03-24T15:24:29;1.33;;;1.20;;
18320;SDS011;54904;54.350;18.664;2023-03-24T15:27:20;2.20;;;1.27;;
18320;SDS011;54904;54.350;18.664;2023-03-24T15:29:58;1.60;;;1.50;;
18320;SDS011;54904;54.350;18.664;2023-03-24T15:32:27;1.70;;;1.60;;